Time;durP1;ratioP1;P1;durP2;ratioP2;P2;SDS_P1;SDS_P2;PMS_P1;PMS_P2;Temp;Humidity;BMP_temperature;BMP_pressure;BME280_temperature;BME280_humidity;BME280_pressure;Samples;Min_cycle;Max_cycle;Signal;HPM_P1;HPM_P2
2022/02/06 00:00:33;;;;;;;1.20;1.10;;;4.60;99.90;;;;;;4974006;28;20413;-68
2022/02/06 00:02:59;;;;;;;1.87;1.20;;;4.60;99.90;;;;;;4974042;28;20476;-68
2022/02/06 00:05:25;;;;;;;2.57;1.47;;;4.60;99.90;;;;;;4974423;28;20180;-68
2022/02/06 00:07:50;;;;;;;1.43;1.13;;;4.60;99.90;;;;;;4974392;28;20174;-69
2022/02/06 00:10:18;;;;;;;1.63;1.23;;;4.60;99.90;;;;;;4974037;28;20941;-69
2022/02/06 00:12:43;;;;;;;1.67;1.30;;;4.60;99.90;;;;;;4974087;28;20173;-68
2022/02/06 00:15:09;;;;;;;1.53;1.17;;;4.60;99.90;;;;;;4973859;28;20459;-69
2022/02/06 00:17:35;;;;;;;1.90;1.27;;;4.60;99.90;;;;;;4974014;28;20174;-69
2022/02/06 00:20:01;;;;;;;1.20;1.10;;;4.60;99.90;;;;;;4973861;28;20428;-68
2022/02/06 00:22:43;;;;;;;1.00;1.00;;;4.60;99.90;;;;;;4974188;28;20173;-69
2022/02/06 00:25:29;;;;;;;1.30;1.20;;;4.70;99.90;;;;;;4974046;28;20193;-69
2022/02/06 00:28:05;;;;;;;0.80;0.80;;;4.70;99.90;;;;;;4973467;28;20401;-69
2022/02/06 00:30:47;;;;;;;1.27;1.20;;;4.70;99.90;;;;;;4973394;28;20412;-69
2022/02/06 00:33:23;;;;;;;4.20;1.20;;;4.80;99.90;;;;;;4973168;28;20911;-70
2022/02/06 00:35:59;;;;;;;0.80;0.80;;;4.80;99.90;;;;;;4973660;28;20543;-69
2022/02/06 00:43:31;;;;;;;0.80;0.80;;;4.90;99.90;;;;;;4970507;28;20476;-69
2022/02/06 00:45:57;;;;;;;1.40;1.27;;;4.90;99.90;;;;;;4954017;28;20775;-69
2022/02/06 00:48:27;;;;;;;2.60;1.33;;;4.90;99.90;;;;;;4952801;28;20179;-69
2022/02/06 00:51:10;;;;;;;1.77;1.63;;;5.00;99.90;;;;;;4953688;28;20166;-69
2022/02/06 00:53:35;;;;;;;1.03;1.03;;;5.00;99.90;;;;;;4953763;28;20437;-68
2022/02/06 00:56:01;;;;;;;1.17;1.07;;;5.00;99.90;;;;;;4952759;28;20453;-68
2022/02/06 00:58:26;;;;;;;4.60;1.80;;;5.10;99.90;;;;;;4953871;28;20292;-68
2022/02/06 01:00:52;;;;;;;2.20;1.30;;;5.10;99.90;;;;;;4953608;28;20180;-68
2022/02/06 01:03:17;;;;;;;5.03;1.07;;;5.10;99.90;;;;;;4953437;28;20552;-68
2022/02/06 01:05:43;;;;;;;1.00;0.97;;;5.10;99.90;;;;;;4953749;29;20177;-68
2022/02/06 01:08:09;;;;;;;1.63;0.90;;;5.10;99.90;;;;;;4953768;29;20241;-69
2022/02/06 01:10:34;;;;;;;0.90;0.90;;;5.20;99.90;;;;;;4953494;29;20257;-69
2022/02/06 01:13:13;;;;;;;1.10;1.00;;;5.20;99.90;;;;;;4953329;28;20410;-69
2022/02/06 01:15:45;;;;;;;1.17;1.07;;;5.20;99.90;;;;;;4953525;28;20193;-68
2022/02/06 01:18:19;;;;;;;1.83;1.37;;;5.20;99.90;;;;;;4953643;28;21008;-68
2022/02/06 01:20:53;;;;;;;0.80;0.80;;;5.20;99.90;;;;;;4953451;28;20408;-68
2022/02/06 01:23:26;;;;;;;1.73;1.30;;;5.30;99.90;;;;;;4953575;28;20889;-68
2022/02/06 01:25:54;;;;;;;1.00;1.00;;;5.30;99.90;;;;;;4953499;28;20406;-68
2022/02/06 01:28:27;;;;;;;0.90;0.90;;;5.30;99.90;;;;;;4953366;28;20416;-69
2022/02/06 01:31:43;;;;;;;0.90;0.90;;;5.40;99.90;;;;;;4953348;28;20888;-69
2022/02/06 01:33:50;;;;;;;1.60;1.47;;;5.40;99.90;;;;;;4952236;28;20533;-68
2022/02/06 01:36:39;;;;;;;2.20;1.20;;;5.40;99.90;;;;;;4953666;28;20990;-68
2022/02/06 01:39:19;;;;;;;1.37;1.00;;;5.40;99.90;;;;;;4953802;28;20769;-69
2022/02/06 01:41:45;;;;;;;1.00;0.90;;;5.50;99.90;;;;;;4953676;28;20555;-69
2022/02/06 01:44:22;;;;;;;1.07;0.90;;;5.50;99.90;;;;;;4953549;28;20473;-68
2022/02/06 02:00:39;;;;;;;1.00;0.90;;;5.60;99.90;;;;;;4953338;29;20923;-68
2022/02/06 02:03:28;;;;;;;1.30;1.20;;;5.70;99.90;;;;;;4953208;28;20970;-68
2022/02/06 02:06:33;;;;;;;3.10;1.73;;;5.60;99.90;;;;;;4953129;28;20398;-69
2022/02/06 02:19:36;;;;;;;0.90;0.90;;;5.50;99.90;;;;;;4956290;28;20436;-68
2022/02/06 02:22:26;;;;;;;1.00;0.90;;;5.40;99.90;;;;;;4956014;28;20501;-68
2022/02/06 02:25:23;;;;;;;1.13;1.13;;;5.40;99.90;;;;;;4956315;28;20473;-68
2022/02/06 02:27:51;;;;;;;0.83;0.70;;;5.40;99.90;;;;;;4956082;28;20790;-67
2022/02/06 02:30:42;;;;;;;4.93;1.93;;;5.40;99.90;;;;;;4956176;28;20410;-67
2022/02/06 02:44:54;;;;;;;2.20;1.00;;;5.30;99.90;;;;;;4955800;28;20908;-69
2022/02/06 02:47:13;;;;;;;1.00;0.90;;;5.20;99.90;;;;;;4955892;28;20418;-68
2022/02/06 02:49:42;;;;;;;1.20;1.10;;;5.20;99.90;;;;;;4956396;28;20502;-69
2022/02/06 02:52:17;;;;;;;3.47;0.90;;;5.20;99.90;;;;;;4955894;28;20788;-69
2022/02/06 02:54:47;;;;;;;1.83;0.80;;;5.10;99.90;;;;;;4955682;28;20843;-68
2022/02/06 02:57:29;;;;;;;2.20;1.37;;;5.10;99.90;;;;;;4955968;28;20477;-69
2022/02/06 03:00:19;;;;;;;1.73;1.00;;;5.00;99.90;;;;;;4955792;28;20414;-69
2022/02/06 03:02:46;;;;;;;1.10;1.00;;;5.00;99.90;;;;;;4955676;28;20414;-69
2022/02/06 03:05:12;;;;;;;5.57;1.63;;;5.00;99.90;;;;;;4956016;28;20441;-69
2022/02/06 03:07:37;;;;;;;1.20;1.10;;;5.00;99.90;;;;;;4955676;29;20939;-68
2022/02/06 03:10:03;;;;;;;1.20;1.10;;;4.90;99.90;;;;;;4955875;28;20664;-69
2022/02/06 03:12:31;;;;;;;0.87;0.87;;;4.90;99.90;;;;;;4955741;29;20249;-69
2022/02/06 03:15:06;;;;;;;1.77;1.67;;;4.90;99.90;;;;;;4955477;28;20241;-69
2022/02/06 03:17:35;;;;;;;1.60;1.50;;;4.90;99.90;;;;;;4955983;28;20471;-69
2022/02/06 03:20:07;;;;;;;1.10;1.07;;;4.80;99.90;;;;;;4954466;28;20406;-70
2022/02/06 03:22:49;;;;;;;1.67;1.00;;;4.80;99.90;;;;;;4955163;28;20394;-70
2022/02/06 03:25:19;;;;;;;1.43;1.10;;;4.80;99.90;;;;;;4955170;28;20430;-69
2022/02/06 03:27:46;;;;;;;1.10;1.07;;;4.70;99.90;;;;;;4955537;28;20468;-70
2022/02/06 03:30:11;;;;;;;1.00;1.00;;;4.80;99.90;;;;;;4955222;28;20769;-69
2022/02/06 03:32:37;;;;;;;3.77;1.37;;;4.70;99.90;;;;;;4955213;28;20424;-68
2022/02/06 03:35:03;;;;;;;0.70;0.70;;;4.70;99.90;;;;;;4954940;28;20350;-69
2022/02/06 03:37:28;;;;;;;1.43;1.17;;;4.70;99.90;;;;;;4955479;29;20182;-69
2022/02/06 03:39:55;;;;;;;0.80;0.80;;;4.70;99.90;;;;;;4955233;29;20175;-68
2022/02/06 03:42:23;;;;;;;2.50;1.07;;;4.70;99.90;;;;;;4954795;28;20237;-68
2022/02/06 03:44:52;;;;;;;5.53;1.20;;;4.70;99.90;;;;;;4954487;28;20449;-68
2022/02/06 03:47:24;;;;;;;6.10;1.30;;;4.70;99.90;;;;;;4954726;28;20434;-68
2022/02/06 03:52:18;;;;;;;0.77;0.77;;;4.70;99.90;;;;;;4954863;29;20414;-69
2022/02/06 03:54:44;;;;;;;2.93;1.17;;;4.70;99.90;;;;;;4954843;28;20432;-69
2022/02/06 03:57:09;;;;;;;1.30;1.20;;;4.70;99.90;;;;;;4954705;29;20501;-69
2022/02/06 03:59:35;;;;;;;22.23;1.93;;;4.70;99.90;;;;;;4954464;28;20225;-68
2022/02/06 04:02:02;;;;;;;0.70;0.70;;;4.60;99.90;;;;;;4954576;28;20185;-68
2022/02/06 04:04:27;;;;;;;1.07;0.80;;;4.60;99.90;;;;;;4954460;28;20456;-68
2022/02/06 04:06:53;;;;;;;3.93;1.47;;;4.60;99.90;;;;;;4954448;29;20906;-69
2022/02/06 04:09:30;;;;;;;1.00;1.00;;;4.60;99.90;;;;;;4954479;28;20178;-68
2022/02/06 04:11:57;;;;;;;0.90;0.90;;;4.60;99.90;;;;;;4954432;28;20456;-68
2022/02/06 04:14:27;;;;;;;0.97;0.93;;;4.70;99.90;;;;;;4954156;28;20433;-68
2022/02/06 04:16:55;;;;;;;1.10;1.10;;;4.60;99.90;;;;;;4954342;28;20936;-69
2022/02/06 04:19:27;;;;;;;1.43;1.33;;;4.60;99.90;;;;;;4954133;28;20425;-69
2022/02/06 04:21:57;;;;;;;1.17;1.07;;;4.70;99.90;;;;;;4954232;28;20413;-69
2022/02/06 04:24:24;;;;;;;0.70;0.70;;;4.70;99.90;;;;;;4954126;28;20415;-69
2022/02/06 04:26:52;;;;;;;5.83;1.43;;;4.70;99.90;;;;;;4954354;28;20481;-69
2022/02/06 04:29:18;;;;;;;1.30;1.20;;;4.70;99.90;;;;;;4954772;28;20501;-68
2022/02/06 04:31:44;;;;;;;4.07;0.93;;;4.70;99.90;;;;;;4954121;28;20493;-68
2022/02/06 04:34:10;;;;;;;0.83;0.83;;;4.70;99.90;;;;;;4954017;28;20430;-68
2022/02/06 04:36:57;;;;;;;1.23;1.13;;;4.70;99.90;;;;;;4953897;28;20453;-68
2022/02/06 04:39:59;;;;;;;1.27;1.17;;;4.70;99.90;;;;;;4953690;28;20159;-68
2022/02/06 04:42:56;;;;;;;0.90;0.90;;;4.70;99.90;;;;;;4953733;28;20419;-68
2022/02/06 04:48:18;;;;;;;2.53;1.47;;;4.80;99.90;;;;;;4953575;28;20563;-69
2022/02/06 04:51:15;;;;;;;1.30;1.20;;;4.80;99.90;;;;;;4953335;28;20462;-68
2022/02/06 05:22:50;;;;;;;1.50;1.40;;;4.90;99.90;;;;;;4953602;29;20412;-69
2022/02/06 05:25:40;;;;;;;3.10;1.77;;;4.90;99.90;;;;;;4953424;28;20974;-68
2022/02/06 05:28:28;;;;;;;1.33;1.10;;;4.90;99.90;;;;;;4953499;28;20882;-68
2022/02/06 05:31:03;;;;;;;1.40;1.30;;;4.90;99.90;;;;;;4953344;28;20421;-68
2022/02/06 05:33:28;;;;;;;1.40;1.07;;;4.90;99.90;;;;;;4953106;28;20425;-68
2022/02/06 05:35:54;;;;;;;2.60;1.67;;;4.90;99.90;;;;;;4953240;29;20477;-68
2022/02/06 05:38:19;;;;;;;1.03;1.00;;;5.00;99.90;;;;;;4953192;28;20644;-68
2022/02/06 05:40:45;;;;;;;1.00;1.00;;;4.90;99.90;;;;;;4953272;29;20296;-68
2022/02/06 05:43:10;;;;;;;1.83;1.73;;;5.00;99.90;;;;;;4955049;28;20183;-69
2022/02/06 05:45:36;;;;;;;4.30;1.00;;;4.90;99.90;;;;;;5022724;23;20306;-74
2022/02/06 05:48:01;;;;;;;5.53;1.40;;;5.00;99.90;;;;;;5015359;28;20180;-74
2022/02/06 05:50:27;;;;;;;1.20;1.10;;;4.90;99.90;;;;;;5030547;28;20189;-72
2022/02/06 05:52:53;;;;;;;2.13;1.93;;;5.00;99.90;;;;;;5015342;28;20171;-73
2022/02/06 05:55:19;;;;;;;1.33;1.23;;;4.90;99.90;;;;;;5015400;28;20941;-72
2022/02/06 05:57:44;;;;;;;1.90;1.80;;;4.90;99.90;;;;;;5015306;28;20686;-72
2022/02/06 06:00:11;;;;;;;2.03;1.90;;;4.90;99.90;;;;;;5015242;28;20171;-72
2022/02/06 06:02:37;;;;;;;0.80;0.80;;;4.90;99.90;;;;;;5015131;28;20179;-72
2022/02/06 06:05:03;;;;;;;0.87;0.87;;;5.00;99.90;;;;;;5015105;28;20423;-73
2022/02/06 06:07:28;;;;;;;1.30;1.20;;;5.00;99.90;;;;;;5015281;28;20980;-73
2022/02/06 06:09:54;;;;;;;4.90;1.53;;;5.00;99.90;;;;;;5013847;28;20403;-73
2022/02/06 06:12:19;;;;;;;1.30;1.20;;;5.00;99.90;;;;;;5015149;28;20226;-74
2022/02/06 06:14:47;;;;;;;1.00;1.00;;;5.00;99.90;;;;;;5015060;28;20195;-73
2022/02/06 06:17:13;;;;;;;1.57;1.47;;;5.00;99.90;;;;;;5014905;28;20192;-72
2022/02/06 06:19:42;;;;;;;0.90;0.90;;;5.00;99.90;;;;;;5014843;28;20403;-73
2022/02/06 06:22:10;;;;;;;1.20;1.00;;;5.00;99.90;;;;;;5014968;28;20164;-73
2022/02/06 06:24:41;;;;;;;1.27;0.90;;;4.90;99.90;;;;;;5013619;28;20956;-74
2022/02/06 06:27:07;;;;;;;1.27;1.10;;;5.00;99.90;;;;;;5014805;28;20749;-74
2022/02/06 06:29:33;;;;;;;1.63;1.23;;;5.00;99.90;;;;;;5014856;28;20468;-74
2022/02/06 06:31:59;;;;;;;1.20;1.20;;;5.00;99.90;;;;;;5014858;28;20924;-74
2022/02/06 06:34:24;;;;;;;1.20;1.10;;;5.00;99.90;;;;;;5014855;28;20191;-75
2022/02/06 06:36:50;;;;;;;1.63;1.10;;;4.90;99.90;;;;;;5014671;28;20203;-74
2022/02/06 06:39:30;;;;;;;0.80;0.80;;;5.00;99.90;;;;;;5014662;28;20172;-74
2022/02/06 06:41:56;;;;;;;1.40;1.13;;;5.00;99.90;;;;;;5014871;28;20391;-74
2022/02/06 06:44:21;;;;;;;3.93;2.03;;;5.00;99.90;;;;;;5014661;28;20538;-74
2022/02/06 06:46:47;;;;;;;1.00;0.90;;;5.00;99.90;;;;;;5014781;28;20630;-74
2022/02/06 06:49:12;;;;;;;0.90;0.90;;;5.00;99.90;;;;;;5014454;28;20176;-74
2022/02/06 06:51:38;;;;;;;1.20;1.10;;;5.00;99.90;;;;;;5013274;28;20172;-74
2022/02/06 06:54:11;;;;;;;1.30;1.20;;;5.00;99.90;;;;;;5011962;28;20208;-74
2022/02/06 06:56:44;;;;;;;1.17;1.07;;;5.00;99.90;;;;;;5014398;28;20682;-73
2022/02/06 06:59:26;;;;;;;1.33;1.20;;;5.00;99.90;;;;;;5014367;28;20442;-74
2022/02/06 07:02:04;;;;;;;4.43;1.07;;;5.00;99.90;;;;;;5014375;28;20467;-74
2022/02/06 07:04:30;;;;;;;4.73;1.10;;;5.00;99.90;;;;;;5014216;28;20415;-74
2022/02/06 07:06:55;;;;;;;1.07;0.87;;;5.00;99.90;;;;;;5014127;28;20458;-73
2022/02/06 07:09:21;;;;;;;1.43;1.37;;;5.10;99.90;;;;;;5013924;28;20556;-74
2022/02/06 07:11:46;;;;;;;1.77;1.40;;;5.10;99.90;;;;;;5013964;28;20177;-74
2022/02/06 07:14:12;;;;;;;0.70;0.70;;;5.10;99.90;;;;;;5014011;28;20227;-74
2022/02/06 07:16:37;;;;;;;0.87;0.87;;;5.20;99.90;;;;;;5013938;28;20286;-74
2022/02/06 07:19:03;;;;;;;1.60;1.50;;;5.10;99.90;;;;;;5013843;28;20168;-73
2022/02/06 07:21:30;;;;;;;0.90;0.80;;;5.20;99.90;;;;;;5013873;28;20180;-74
2022/02/06 07:23:55;;;;;;;1.53;0.90;;;5.20;99.90;;;;;;5013886;28;20167;-73
2022/02/06 07:26:21;;;;;;;1.20;1.10;;;5.20;99.90;;;;;;5014029;28;20415;-73
2022/02/06 07:28:49;;;;;;;1.50;1.40;;;5.30;99.90;;;;;;5013828;28;20172;-73
2022/02/06 07:31:15;;;;;;;1.03;1.00;;;5.30;99.90;;;;;;5012459;28;20202;-73
2022/02/06 07:33:40;;;;;;;1.30;1.23;;;5.30;99.90;;;;;;5013410;28;20465;-72
2022/02/06 07:36:06;;;;;;;2.20;1.73;;;5.30;99.90;;;;;;5013358;28;20278;-74
2022/02/06 07:38:31;;;;;;;1.80;1.20;;;5.30;99.90;;;;;;5010174;28;20176;-72
2022/02/06 07:40:57;;;;;;;1.20;1.00;;;5.30;99.90;;;;;;5013193;28;20681;-74
2022/02/06 07:43:22;;;;;;;1.20;1.10;;;5.30;99.90;;;;;;5013239;28;20171;-73
2022/02/06 07:45:48;;;;;;;1.60;1.50;;;5.40;99.90;;;;;;5013271;28;20207;-73
2022/02/06 07:48:15;;;;;;;0.90;0.90;;;5.40;99.90;;;;;;5013220;28;20206;-72
2022/02/06 07:50:41;;;;;;;1.60;1.20;;;5.40;99.90;;;;;;5013424;28;20226;-73
2022/02/06 07:53:06;;;;;;;0.70;0.70;;;5.50;99.90;;;;;;5013148;28;20400;-73
2022/02/06 07:55:31;;;;;;;1.60;1.50;;;5.50;99.90;;;;;;5013129;28;20585;-73
2022/02/06 07:57:58;;;;;;;1.30;0.90;;;5.60;99.90;;;;;;5013244;28;20188;-74
2022/02/06 08:00:23;;;;;;;1.80;1.70;;;5.60;99.90;;;;;;5013063;28;20171;-72
2022/02/06 08:02:49;;;;;;;1.03;0.93;;;5.60;99.90;;;;;;5013140;28;20403;-73
2022/02/06 08:05:17;;;;;;;1.23;1.07;;;5.60;99.90;;;;;;5012748;28;20207;-74
2022/02/06 08:07:43;;;;;;;0.80;0.70;;;5.70;99.90;;;;;;5013081;28;20160;-74
2022/02/06 08:10:09;;;;;;;0.80;0.80;;;5.60;99.90;;;;;;5012925;28;20422;-73
2022/02/06 08:12:40;;;;;;;1.33;1.23;;;5.70;99.90;;;;;;5012723;28;20170;-73
2022/02/06 08:15:06;;;;;;;1.50;1.07;;;5.70;99.90;;;;;;5012691;28;20588;-73
2022/02/06 08:17:33;;;;;;;2.20;1.00;;;5.80;99.90;;;;;;5012864;28;20439;-72
2022/02/06 08:20:08;;;;;;;1.20;1.10;;;5.80;99.90;;;;;;5011267;28;20868;-76
2022/02/06 08:22:34;;;;;;;1.17;1.10;;;5.80;99.90;;;;;;5012729;28;20409;-75
2022/02/06 08:25:00;;;;;;;0.70;0.70;;;5.80;99.90;;;;;;5012488;28;20510;-74
2022/02/06 08:27:27;;;;;;;11.63;1.03;;;5.80;99.90;;;;;;5012601;28;20183;-73
2022/02/06 08:29:53;;;;;;;1.23;1.13;;;5.80;99.90;;;;;;5012546;28;20776;-73
2022/02/06 08:32:21;;;;;;;0.70;0.70;;;5.80;99.90;;;;;;5012447;28;20417;-73
2022/02/06 08:34:47;;;;;;;0.80;0.80;;;5.80;99.90;;;;;;5012423;28;20439;-73
2022/02/06 08:37:13;;;;;;;0.87;0.87;;;5.80;99.90;;;;;;5012743;28;20543;-73
2022/02/06 08:39:40;;;;;;;1.03;0.90;;;5.80;99.90;;;;;;5012342;28;20852;-74
2022/02/06 08:42:09;;;;;;;1.00;0.90;;;5.90;99.90;;;;;;5012589;28;20170;-73
2022/02/06 08:44:38;;;;;;;1.40;1.30;;;5.90;99.90;;;;;;5012150;28;20493;-73
2022/02/06 08:47:06;;;;;;;0.80;0.80;;;6.00;99.90;;;;;;5012217;28;20512;-73
2022/02/06 08:49:32;;;;;;;0.80;0.80;;;6.00;99.90;;;;;;5012134;28;20421;-76
2022/02/06 08:51:57;;;;;;;0.80;0.80;;;6.00;99.90;;;;;;5012598;28;20800;-74
2022/02/06 08:54:28;;;;;;;3.37;1.10;;;6.00;99.90;;;;;;5012384;28;20200;-74
2022/02/06 08:56:59;;;;;;;0.97;0.87;;;6.00;99.90;;;;;;5012216;28;20196;-72
2022/02/06 08:59:24;;;;;;;1.17;1.07;;;6.10;99.90;;;;;;5011998;28;20779;-74
2022/02/06 09:01:50;;;;;;;0.90;0.90;;;6.10;99.90;;;;;;5012229;28;20410;-72
2022/02/06 09:04:15;;;;;;;1.10;1.00;;;6.20;99.90;;;;;;5012017;28;20188;-73
2022/02/06 09:06:41;;;;;;;1.67;1.57;;;6.30;99.90;;;;;;5012192;28;20160;-74
2022/02/06 09:09:08;;;;;;;2.43;0.90;;;6.30;99.90;;;;;;5012079;28;20251;-74
2022/02/06 09:11:33;;;;;;;0.90;0.90;;;6.30;99.90;;;;;;5012097;28;20178;-73
2022/02/06 09:13:59;;;;;;;0.93;0.83;;;6.30;99.90;;;;;;5011756;28;20759;-74
2022/02/06 09:16:28;;;;;;;0.93;0.93;;;6.30;99.90;;;;;;5012100;28;20200;-73
2022/02/06 09:18:54;;;;;;;0.93;0.93;;;6.30;99.90;;;;;;5015393;28;20168;-72
2022/02/06 09:21:21;;;;;;;1.00;1.00;;;6.30;99.90;;;;;;5015982;28;20851;-73
2022/02/06 09:23:47;;;;;;;1.10;1.00;;;6.30;99.90;;;;;;5016184;28;20757;-73
2022/02/06 09:26:13;;;;;;;0.93;0.87;;;6.40;99.90;;;;;;5016570;28;20407;-73
2022/02/06 09:28:39;;;;;;;1.73;1.30;;;6.40;99.90;;;;;;5015997;28;20758;-76
2022/02/06 09:31:04;;;;;;;0.80;0.80;;;6.40;99.90;;;;;;5015878;28;20411;-73
2022/02/06 09:35:55;;;;;;;1.50;1.00;;;6.50;99.90;;;;;;5015916;28;20565;-75
2022/02/06 09:38:21;;;;;;;1.20;1.10;;;6.60;99.90;;;;;;5016187;28;20227;-72
2022/02/06 09:40:51;;;;;;;1.80;1.47;;;6.50;99.90;;;;;;5014534;28;20179;-73
2022/02/06 09:43:17;;;;;;;1.63;1.53;;;6.50;99.90;;;;;;5015901;28;20323;-73
2022/02/06 09:45:46;;;;;;;1.60;1.50;;;6.60;99.90;;;;;;5015431;28;20454;-73
2022/02/06 09:48:13;;;;;;;1.00;1.00;;;6.60;99.90;;;;;;5015912;28;20811;-74
2022/02/06 09:50:41;;;;;;;1.90;1.40;;;6.60;99.90;;;;;;5015669;28;20873;-74
2022/02/06 09:53:07;;;;;;;2.43;1.10;;;6.60;99.90;;;;;;5015671;28;20900;-73
2022/02/06 09:55:32;;;;;;;3.33;1.10;;;6.70;99.90;;;;;;5015709;28;20443;-74
2022/02/06 09:58:13;;;;;;;1.83;1.73;;;6.70;99.90;;;;;;5015476;28;20180;-74
2022/02/06 10:00:39;;;;;;;1.00;0.90;;;6.80;99.90;;;;;;5015589;28;20179;-74
2022/02/06 10:03:10;;;;;;;1.40;1.00;;;6.90;99.90;;;;;;5015437;28;20481;-73
2022/02/06 10:05:38;;;;;;;1.67;1.00;;;7.00;99.90;;;;;;5015422;28;20482;-74
2022/02/06 10:08:23;;;;;;;0.93;0.90;;;7.00;99.90;;;;;;5015296;28;20439;-73
2022/02/06 10:11:10;;;;;;;1.07;0.97;;;7.00;99.90;;;;;;5015163;28;20877;-74
2022/02/06 10:13:37;;;;;;;1.03;0.93;;;7.00;99.90;;;;;;5015172;28;20465;-72
2022/02/06 10:16:04;;;;;;;0.80;0.80;;;7.10;99.90;;;;;;5014883;28;21011;-74
2022/02/06 10:18:30;;;;;;;0.80;0.80;;;7.10;99.90;;;;;;5015059;28;20782;-72
2022/02/06 10:20:56;;;;;;;0.70;0.70;;;7.10;99.90;;;;;;5015374;28;20407;-73
2022/02/06 10:23:36;;;;;;;0.83;0.83;;;7.20;99.90;;;;;;5015708;28;20522;-71
2022/02/06 10:26:07;;;;;;;1.70;0.83;;;7.20;99.90;;;;;;5014839;28;20195;-73
2022/02/06 10:28:43;;;;;;;1.60;0.80;;;7.30;99.90;;;;;;5014435;28;20485;-74
2022/02/06 10:31:10;;;;;;;0.70;0.70;;;7.40;99.90;;;;;;5013713;28;20941;-73
2022/02/06 10:33:48;;;;;;;1.10;1.10;;;7.30;99.90;;;;;;5013310;28;20838;-74
2022/02/06 10:36:26;;;;;;;1.07;0.80;;;7.30;99.90;;;;;;5014707;28;20443;-73
2022/02/06 10:39:01;;;;;;;3.43;1.57;;;7.30;99.90;;;;;;5014520;28;20415;-73
2022/02/06 10:41:27;;;;;;;0.97;0.80;;;7.40;99.90;;;;;;4995276;28;20478;-73
2022/02/06 10:44:04;;;;;;;0.90;0.90;;;7.40;99.90;;;;;;4994791;28;20525;-73
2022/02/06 10:46:32;;;;;;;0.97;0.93;;;7.40;99.90;;;;;;5003347;28;20608;-73
2022/02/06 10:49:09;;;;;;;0.80;0.80;;;7.40;99.90;;;;;;5014331;28;20921;-73
2022/02/06 10:51:43;;;;;;;2.60;1.00;;;7.50;99.90;;;;;;5014718;28;20457;-73
2022/02/06 10:54:17;;;;;;;1.47;1.37;;;7.60;99.90;;;;;;5014409;28;20423;-73
2022/02/06 10:57:10;;;;;;;0.97;0.90;;;7.60;99.90;;;;;;5014327;28;20442;-73
2022/02/06 10:59:53;;;;;;;1.73;1.63;;;7.70;99.90;;;;;;5013357;28;20851;-73
2022/02/06 11:02:25;;;;;;;2.30;0.80;;;7.80;99.90;;;;;;5014699;28;20912;-73
2022/02/06 11:05:14;;;;;;;1.23;1.00;;;7.80;99.90;;;;;;5014380;28;20423;-73
2022/02/06 11:07:54;;;;;;;1.17;1.07;;;7.90;99.90;;;;;;5014183;28;20407;-73
2022/02/06 11:10:21;;;;;;;1.00;1.00;;;7.90;99.90;;;;;;5014300;28;20403;-74
2022/02/06 11:12:51;;;;;;;1.00;1.00;;;7.90;99.90;;;;;;5014085;28;20403;-73
2022/02/06 11:15:37;;;;;;;1.30;1.20;;;7.90;99.90;;;;;;5013929;28;20791;-74
2022/02/06 11:18:12;;;;;;;0.90;0.80;;;8.00;99.90;;;;;;5013932;28;20414;-73
2022/02/06 11:21:03;;;;;;;0.90;0.80;;;8.00;99.90;;;;;;5012628;28;20442;-72
2022/02/06 11:23:37;;;;;;;1.33;0.90;;;8.00;99.90;;;;;;5013248;28;20469;-74
2022/02/06 11:26:17;;;;;;;0.83;0.80;;;8.00;99.90;;;;;;5013464;28;20465;-74
2022/02/06 11:28:45;;;;;;;3.33;1.00;;;8.00;99.90;;;;;;5013674;28;20814;-75
2022/02/06 11:31:10;;;;;;;1.77;1.00;;;8.10;99.90;;;;;;5013761;28;20674;-73
2022/02/06 11:33:36;;;;;;;1.07;0.97;;;8.00;99.90;;;;;;5013443;28;20960;-73
2022/02/06 11:36:09;;;;;;;0.80;0.80;;;8.00;99.90;;;;;;5013519;28;20255;-73
2022/02/06 11:45:07;;;;;;;1.70;1.13;;;8.00;99.90;;;;;;5035407;23;20493;-72
2022/02/06 11:47:43;;;;;;;1.07;0.90;;;8.00;99.90;;;;;;5007392;28;20414;-72
2022/02/06 11:50:10;;;;;;;1.00;0.77;;;8.00;99.90;;;;;;5013185;28;20402;-73
2022/02/06 11:53:00;;;;;;;0.80;0.80;;;8.00;99.90;;;;;;5013536;28;20507;-73
2022/02/06 11:55:39;;;;;;;2.10;0.80;;;8.00;99.90;;;;;;5013301;28;20478;-74
2022/02/06 11:58:26;;;;;;;1.00;0.80;;;8.00;99.90;;;;;;5013351;28;20443;-72
2022/02/06 12:01:06;;;;;;;0.80;0.80;;;8.00;99.90;;;;;;5013208;28;20921;-72
2022/02/06 12:04:06;;;;;;;1.80;1.30;;;8.00;99.90;;;;;;5011854;28;20790;-72
2022/02/06 12:06:46;;;;;;;1.90;1.07;;;8.00;99.90;;;;;;5013344;28;20430;-73
2022/02/06 12:09:16;;;;;;;1.53;0.90;;;8.00;99.90;;;;;;5012843;28;20434;-74
2022/02/06 12:12:04;;;;;;;1.30;0.80;;;7.90;99.90;;;;;;5013061;28;20430;-73
2022/02/06 12:14:39;;;;;;;0.80;0.80;;;7.90;99.90;;;;;;5013152;28;20411;-73
2022/02/06 12:17:36;;;;;;;1.77;0.90;;;7.90;99.90;;;;;;5013919;28;20458;-73
2022/02/06 12:20:15;;;;;;;0.67;0.67;;;7.80;99.90;;;;;;5013726;28;20415;-72
2022/02/06 12:22:46;;;;;;;4.57;1.43;;;7.80;99.90;;;;;;5013423;28;20415;-74
2022/02/06 12:25:27;;;;;;;1.03;0.93;;;7.80;99.90;;;;;;5012341;28;20423;-74
2022/02/06 12:28:18;;;;;;;0.83;0.83;;;7.80;99.90;;;;;;5012791;28;20411;-73
2022/02/06 12:30:53;;;;;;;0.80;0.80;;;7.70;99.90;;;;;;5012482;28;20442;-73
2022/02/06 12:33:31;;;;;;;0.70;0.70;;;7.70;99.90;;;;;;5010429;28;20437;-74
2022/02/06 12:38:44;;;;;;;0.73;0.73;;;7.80;99.90;;;;;;5012517;28;20443;-73
2022/02/06 12:41:17;;;;;;;0.80;0.80;;;7.70;99.90;;;;;;5012313;28;20459;-73
2022/02/06 12:43:51;;;;;;;0.70;0.70;;;7.80;99.90;;;;;;5012261;28;20502;-74
2022/02/06 12:46:17;;;;;;;1.30;1.20;;;7.80;99.90;;;;;;5012500;28;20451;-74
2022/02/06 12:48:42;;;;;;;0.93;0.90;;;7.80;99.90;;;;;;5012049;28;20426;-74
2022/02/06 12:51:08;;;;;;;0.60;0.60;;;7.80;99.90;;;;;;5012170;28;20299;-71
2022/02/06 12:53:33;;;;;;;0.83;0.80;;;7.80;99.90;;;;;;5012042;28;20173;-71
2022/02/06 12:55:59;;;;;;;0.70;0.70;;;7.80;99.90;;;;;;5012135;28;20618;-72
2022/02/06 12:58:28;;;;;;;0.70;0.70;;;7.70;99.90;;;;;;5015445;28;20187;-72
2022/02/06 13:00:55;;;;;;;0.83;0.80;;;7.80;99.90;;;;;;5013454;28;20176;-72
2022/02/06 13:03:38;;;;;;;1.30;1.20;;;7.80;99.90;;;;;;5012112;28;20450;-72
2022/02/06 13:06:09;;;;;;;0.67;0.67;;;7.90;99.90;;;;;;5011862;28;20489;-74
2022/02/06 13:08:38;;;;;;;1.00;0.80;;;8.00;99.90;;;;;;5012129;28;20416;-73
2022/02/06 13:11:08;;;;;;;0.70;0.70;;;7.90;99.90;;;;;;5011936;28;20934;-74
2022/02/06 13:13:41;;;;;;;0.70;0.70;;;7.90;99.90;;;;;;5012263;28;20417;-75
2022/02/06 13:16:38;;;;;;;0.80;0.70;;;7.90;99.90;;;;;;5012339;28;20450;-73
2022/02/06 13:19:23;;;;;;;3.53;0.83;;;7.90;99.90;;;;;;5012174;28;20785;-74
2022/02/06 13:25:00;;;;;;;1.20;1.00;;;7.80;99.90;;;;;;5011968;28;20423;-73
2022/02/06 13:30:06;;;;;;;0.90;0.90;;;7.80;99.90;;;;;;5011979;28;20426;-73
2022/02/06 13:38:11;;;;;;;0.60;0.60;;;7.80;99.90;;;;;;5011830;28;20452;-74
2022/02/06 13:40:46;;;;;;;0.70;0.70;;;7.80;99.90;;;;;;5010278;28;20426;-73
2022/02/06 13:43:18;;;;;;;0.60;0.60;;;7.80;99.90;;;;;;5011327;28;20415;-73
2022/02/06 13:45:44;;;;;;;0.80;0.80;;;7.80;99.90;;;;;;5011460;28;20447;-77
2022/02/06 13:48:11;;;;;;;0.60;0.60;;;7.70;99.90;;;;;;5011946;28;20415;-72
2022/02/06 13:50:43;;;;;;;0.70;0.70;;;7.70;99.90;;;;;;5014448;28;20442;-75
2022/02/06 13:53:13;;;;;;;0.70;0.70;;;7.60;99.90;;;;;;5014635;28;20432;-72
2022/02/06 13:56:00;;;;;;;0.80;0.80;;;7.60;99.90;;;;;;5014981;28;20497;-73
2022/02/06 13:58:27;;;;;;;0.70;0.60;;;7.50;99.90;;;;;;5012471;28;20407;-73
2022/02/06 14:00:53;;;;;;;0.70;0.70;;;7.50;99.90;;;;;;5011409;28;20778;-75
2022/02/06 14:03:19;;;;;;;0.87;0.87;;;7.40;99.90;;;;;;5011696;28;20527;-72
2022/02/06 14:05:51;;;;;;;0.87;0.60;;;7.40;99.90;;;;;;5014037;28;20805;-73
2022/02/06 14:08:19;;;;;;;1.00;0.70;;;7.30;99.90;;;;;;5014262;28;20759;-73
2022/02/06 14:11:02;;;;;;;0.80;0.80;;;7.30;99.90;;;;;;5014527;28;20411;-72
2022/02/06 14:13:28;;;;;;;0.70;0.70;;;7.30;99.90;;;;;;5014150;28;20403;-74
2022/02/06 14:16:12;;;;;;;0.80;0.80;;;7.20;99.90;;;;;;5013591;28;21022;-73
2022/02/06 14:18:55;;;;;;;1.00;1.00;;;7.20;99.90;;;;;;5013670;28;20465;-73
2022/02/06 14:21:20;;;;;;;1.17;1.10;;;7.20;99.90;;;;;;5014106;28;20411;-72
2022/02/06 14:24:08;;;;;;;0.60;0.60;;;7.10;99.90;;;;;;5013665;28;20920;-72
2022/02/06 14:26:33;;;;;;;0.73;0.73;;;7.10;99.90;;;;;;5013593;28;20701;-73
2022/02/06 14:28:58;;;;;;;0.83;0.83;;;7.10;99.90;;;;;;5013451;28;20416;-73
2022/02/06 14:31:29;;;;;;;0.70;0.70;;;7.00;99.90;;;;;;5013456;28;20671;-72
2022/02/06 14:34:14;;;;;;;1.17;0.87;;;7.00;99.90;;;;;;5013492;28;20242;-73
2022/02/06 14:36:41;;;;;;;0.60;0.60;;;6.90;99.90;;;;;;5013208;28;20545;-73
2022/02/06 14:39:06;;;;;;;0.60;0.60;;;6.90;99.90;;;;;;5013588;28;20410;-74
2022/02/06 14:41:49;;;;;;;1.00;0.80;;;6.80;99.90;;;;;;5013138;28;20777;-74
2022/02/06 14:44:24;;;;;;;0.70;0.67;;;6.70;99.90;;;;;;4979785;28;977204;-73
2022/02/06 14:46:50;;;;;;;0.70;0.70;;;6.70;99.90;;;;;;5016789;28;20478;-73
2022/02/06 14:49:18;;;;;;;0.70;0.70;;;6.70;99.90;;;;;;5015817;28;20443;-73
2022/02/06 14:51:44;;;;;;;1.27;0.83;;;6.60;99.90;;;;;;5014276;28;20168;-72
2022/02/06 14:54:12;;;;;;;0.70;0.70;;;6.60;99.90;;;;;;5014285;28;20408;-73
2022/02/06 14:56:42;;;;;;;0.60;0.60;;;6.60;99.90;;;;;;5014635;28;20455;-73